Time;durP1;ratioP1;P1;durP2;ratioP2;P2;SDS_P1;SDS_P2;PMS_P1;PMS_P2;Temp;Humidity;BMP_temperature;BMP_pressure;BME280_temperature;BME280_humidity;BME280_pressure;Samples;Min_cycle;Max_cycle;Signal;HPM_P1;HPM_P2
2021/11/02 00:01:54;;;;;;;;;;;;;;;8.40;74.33;97999.78;5038289;28;19953;-71
2021/11/02 00:04:20;;;;;;;;;;;;;;;8.40;74.98;97992.75;5036927;28;19921;-72
2021/11/02 00:06:45;;;;;;;;;;;;;;;8.34;74.27;98004.50;5029834;28;20296;-71
2021/11/02 00:09:12;;;;;;;;;;;;;;;8.35;74.74;98003.53;5012321;28;19943;-71
2021/11/02 00:11:38;;;;;;;;;;;;;;;8.37;74.43;98004.28;5011410;28;20000;-71
2021/11/02 00:14:05;;;;;;;;;;;;;;;8.36;74.11;98010.47;5029332;28;20016;-71
2021/11/02 00:16:31;;;;;;;;;;;;;;;8.32;75.02;98009.00;5045052;28;19927;-70
2021/11/02 00:19:02;;;;;;;;;;;;;;;8.32;74.88;98010.81;5019355;28;20376;-71
2021/11/02 00:21:33;;;;;;;;;;;;;;;8.27;74.58;98002.38;5011088;28;19917;-71
2021/11/02 00:24:14;;;;;;;;;;;;;;;8.24;74.79;98007.84;5049693;28;19916;-71
2021/11/02 00:26:39;;;;;;;;;;;;;;;8.19;74.82;98008.16;5049049;28;20430;-71
2021/11/02 00:29:05;;;;;;;;;;;;;;;8.20;74.86;98015.09;5031740;28;19921;-71
2021/11/02 00:31:30;;;;;;;;;;;;;;;8.12;75.12;98014.75;5048837;28;20330;-69
2021/11/02 00:33:56;;;;;;;;;;;;;;;8.11;75.15;98008.66;5046132;28;19970;-69
2021/11/02 00:36:21;;;;;;;;;;;;;;;8.11;74.96;98011.28;5048595;28;19982;-70
2021/11/02 00:38:46;;;;;;;;;;;;;;;8.09;75.25;98002.69;5031542;28;19928;-72
2021/11/02 00:41:12;;;;;;;;;;;;;;;8.11;75.23;97999.97;5048552;28;19924;-72
2021/11/02 00:43:37;;;;;;;;;;;;;;;8.09;74.56;97994.81;5048619;28;19994;-70
2021/11/02 00:46:03;;;;;;;;;;;;;;;8.04;75.35;97991.66;5048454;28;20404;-71
2021/11/02 00:48:28;;;;;;;;;;;;;;;7.97;75.05;97990.38;5048913;28;19916;-71
2021/11/02 00:50:54;;;;;;;;;;;;;;;7.98;75.20;97986.00;5030686;28;19940;-73
2021/11/02 00:53:20;;;;;;;;;;;;;;;7.98;75.35;97986.00;5048855;28;19921;-71
2021/11/02 00:55:45;;;;;;;;;;;;;;;7.88;75.49;97986.63;5048872;28;20007;-70
2021/11/02 00:58:11;;;;;;;;;;;;;;;7.87;75.56;97981.47;5049109;28;19951;-72
2021/11/02 01:00:37;;;;;;;;;;;;;;;7.88;75.70;97983.16;5048248;28;19924;-73
2021/11/02 01:03:04;;;;;;;;;;;;;;;7.85;74.81;97973.72;5048787;28;19927;-71
2021/11/02 01:05:29;;;;;;;;;;;;;;;7.87;75.19;97965.72;5031224;28;19921;-71
2021/11/02 01:07:54;;;;;;;;;;;;;;;7.90;74.98;97971.63;5049348;28;19921;-71
2021/11/02 01:10:20;;;;;;;;;;;;;;;7.85;74.77;97978.09;5047908;28;19927;-72
2021/11/02 01:12:45;;;;;;;;;;;;;;;7.84;75.32;97973.81;5048605;28;19932;-72
2021/11/02 01:15:12;;;;;;;;;;;;;;;7.79;74.70;97979.34;5048494;28;19921;-72
2021/11/02 01:17:37;;;;;;;;;;;;;;;7.74;75.34;97979.66;5050265;28;19925;-72
2021/11/02 01:20:04;;;;;;;;;;;;;;;7.72;75.45;97981.53;5051021;28;19917;-72
2021/11/02 01:22:30;;;;;;;;;;;;;;;7.68;75.58;97982.69;5052626;28;20000;-71
2021/11/02 01:24:55;;;;;;;;;;;;;;;7.60;75.43;97989.38;5053552;28;20003;-71
2021/11/02 01:27:20;;;;;;;;;;;;;;;7.62;75.35;97984.88;5054499;28;19921;-72
2021/11/02 01:29:45;;;;;;;;;;;;;;;7.62;75.33;97985.72;5057064;28;19970;-71
2021/11/02 01:32:10;;;;;;;;;;;;;;;7.66;74.96;97991.63;5053194;28;20019;-72
2021/11/02 01:34:36;;;;;;;;;;;;;;;7.68;75.07;97989.75;5054036;28;20006;-71
2021/11/02 01:37:01;;;;;;;;;;;;;;;7.68;74.21;97987.13;5052852;28;19921;-71
2021/11/02 01:39:27;;;;;;;;;;;;;;;7.63;74.59;97989.16;5053167;28;19921;-73
2021/11/02 01:41:52;;;;;;;;;;;;;;;7.67;74.26;97993.28;5054019;28;19916;-71
2021/11/02 01:44:17;;;;;;;;;;;;;;;7.70;73.98;97988.69;5055360;28;19951;-71
2021/11/02 01:46:44;;;;;;;;;;;;;;;7.65;74.09;97992.53;5055408;28;19913;-72
2021/11/02 01:49:09;;;;;;;;;;;;;;;7.64;74.26;97994.31;5054466;28;19972;-72
2021/11/02 01:51:38;;;;;;;;;;;;;;;7.58;74.68;97988.63;5052416;28;20380;-72
2021/11/02 01:54:05;;;;;;;;;;;;;;;7.60;74.36;97992.00;5035374;28;20391;-72
2021/11/02 01:56:30;;;;;;;;;;;;;;;7.60;74.18;97984.13;5053047;28;20012;-72
2021/11/02 01:58:56;;;;;;;;;;;;;;;7.54;74.60;97985.38;5054865;28;19963;-72
2021/11/02 02:01:25;;;;;;;;;;;;;;;7.51;74.62;97982.97;5017749;28;19953;-73
2021/11/02 02:03:58;;;;;;;;;;;;;;;7.48;74.76;97983.16;5044951;28;20273;-72
2021/11/02 02:06:34;;;;;;;;;;;;;;;7.46;74.84;97982.44;5052981;28;19943;-70
2021/11/02 02:09:12;;;;;;;;;;;;;;;7.42;74.40;97989.66;5051698;28;19916;-70
2021/11/02 02:11:41;;;;;;;;;;;;;;;7.34;74.86;97984.06;5051542;28;19967;-70
2021/11/02 02:14:29;;;;;;;;;;;;;;;7.32;74.91;97984.16;5052858;28;20011;-71
2021/11/02 02:16:55;;;;;;;;;;;;;;;7.37;74.32;97985.66;4992167;28;19933;-70
2021/11/02 02:19:39;;;;;;;;;;;;;;;7.43;74.36;97987.88;5032668;28;20444;-72
2021/11/02 02:22:14;;;;;;;;;;;;;;;7.37;74.71;97983.88;5031689;28;20199;-71
2021/11/02 02:24:47;;;;;;;;;;;;;;;7.40;74.55;97982.81;5031575;28;19932;-71
2021/11/02 02:27:21;;;;;;;;;;;;;;;7.34;74.29;97989.31;5031870;28;19925;-71
2021/11/02 02:29:49;;;;;;;;;;;;;;;7.31;74.55;97985.13;5031554;28;20012;-73
2021/11/02 02:32:19;;;;;;;;;;;;;;;7.32;74.63;97984.16;5033296;28;19923;-72
2021/11/02 02:34:47;;;;;;;;;;;;;;;7.35;74.70;97977.03;5031247;28;19921;-72
2021/11/02 02:37:13;;;;;;;;;;;;;;;7.37;74.52;97978.63;5031136;28;19921;-71
2021/11/02 02:39:40;;;;;;;;;;;;;;;7.28;74.82;97972.19;5031351;28;20373;-71
2021/11/02 02:42:06;;;;;;;;;;;;;;;7.31;75.37;97976.41;5030723;28;19921;-70
2021/11/02 02:44:32;;;;;;;;;;;;;;;7.29;74.91;97973.06;5031278;28;19924;-72
2021/11/02 02:46:57;;;;;;;;;;;;;;;7.25;75.20;97971.56;5031233;28;19929;-71
2021/11/02 02:49:23;;;;;;;;;;;;;;;7.25;75.51;97972.41;5013562;28;19953;-71
2021/11/02 02:51:50;;;;;;;;;;;;;;;7.21;75.43;97978.78;5030946;28;19917;-69
2021/11/02 02:54:16;;;;;;;;;;;;;;;7.13;75.75;97974.97;5030788;28;19948;-70
2021/11/02 02:56:43;;;;;;;;;;;;;;;7.10;75.56;97981.25;5030908;28;19936;-71
2021/11/02 02:59:09;;;;;;;;;;;;;;;7.04;76.09;97982.50;5030892;28;20000;-70
2021/11/02 03:01:34;;;;;;;;;;;;;;;7.12;75.75;97976.75;5030623;28;20000;-71
2021/11/02 03:04:03;;;;;;;;;;;;;;;7.17;75.32;97969.44;5030969;28;19924;-71
2021/11/02 03:06:30;;;;;;;;;;;;;;;7.07;75.74;97976.22;5029725;28;19940;-70
2021/11/02 03:08:56;;;;;;;;;;;;;;;6.95;75.87;97977.84;4995138;28;19921;-71
2021/11/02 03:11:21;;;;;;;;;;;;;;;6.82;76.83;97969.09;5031084;28;20339;-71
2021/11/02 03:13:49;;;;;;;;;;;;;;;6.84;76.75;97972.41;5031534;28;19928;-71
2021/11/02 03:16:17;;;;;;;;;;;;;;;6.88;76.50;97966.06;5031286;28;19924;-70
2021/11/02 03:19:22;;;;;;;;;;;;;;;6.98;75.92;97958.47;5029239;28;19929;-71
2021/11/02 04:30:00;;;;;;;;;;;;;;;7.25;74.90;97955.84;5048975;28;19920;-72
2021/11/02 04:35:17;;;;;;;;;;;;;;;7.28;74.65;97958.25;5048870;28;20424;-71
2021/11/02 04:57:57;;;;;;;;;;;;;;;7.31;74.87;97945.81;5014263;28;19928;-72
2021/11/02 05:48:41;;;;;;;;;;;;;;;7.14;74.62;97953.06;5048161;28;20299;-71
2021/11/02 05:56:21;;;;;;;;;;;;;;;7.24;74.59;97955.00;5050953;28;19959;-72
2021/11/02 05:58:56;;;;;;;;;;;;;;;7.27;74.41;97946.09;5048488;28;20291;-71
2021/11/02 06:09:24;;;;;;;;;;;;;;;7.34;74.37;97938.69;5052138;28;19920;-71
2021/11/02 06:28:37;;;;;;;;;;;;;;;7.61;74.19;97938.63;5031068;28;19924;-72
2021/11/02 06:31:10;;;;;;;;;;;;;;;7.63;73.79;97942.84;5030935;28;19920;-70
2021/11/02 06:47:34;;;;;;;;;;;;;;;7.80;73.26;97954.81;5031010;28;19967;-71
2021/11/02 07:23:10;;;;;;;;;;;;;;;8.12;73.46;97962.25;5030670;28;19959;-74
2021/11/02 07:25:55;;;;;;;;;;;;;;;8.17;73.62;97960.16;5030617;28;19925;-73
2021/11/02 08:46:35;;;;;;;;;;;;;;;10.76;64.14;97942.81;5042544;28;19928;-73
2021/11/02 08:48:33;;;;;;;;;;;;;;;11.04;63.41;97948.50;5029594;28;19921;-72
2021/11/02 08:51:00;;;;;;;;;;;;;;;11.37;62.06;97944.91;5059708;28;19927;-73
2021/11/02 08:53:26;;;;;;;;;;;;;;;11.79;60.91;97943.19;5060217;28;19924;-72
2021/11/02 08:55:51;;;;;;;;;;;;;;;11.79;60.24;97940.53;5044236;28;20688;-70
2021/11/02 08:58:23;;;;;;;;;;;;;;;11.79;59.70;97945.00;5063577;28;19932;-71
2021/11/02 09:00:49;;;;;;;;;;;;;;;11.95;59.21;97948.03;5056113;28;19936;-72
2021/11/02 09:03:15;;;;;;;;;;;;;;;11.94;59.78;97946.38;5053812;28;19920;-72
2021/11/02 09:05:41;;;;;;;;;;;;;;;12.00;59.96;97951.13;5045288;28;20430;-72
2021/11/02 09:08:10;;;;;;;;;;;;;;;11.99;59.57;97953.91;5042646;28;19921;-72
2021/11/02 09:10:38;;;;;;;;;;;;;;;12.27;58.47;97954.19;5042138;28;19944;-71
2021/11/02 09:13:03;;;;;;;;;;;;;;;12.29;57.86;97958.38;5043652;28;19920;-71
2021/11/02 09:15:30;;;;;;;;;;;;;;;12.67;58.09;97959.50;5037192;28;20388;-72
2021/11/02 09:17:57;;;;;;;;;;;;;;;13.00;55.61;97960.19;5006799;28;19925;-72
2021/11/02 09:20:23;;;;;;;;;;;;;;;13.25;55.94;97962.31;5036656;28;20342;-71
2021/11/02 09:22:48;;;;;;;;;;;;;;;14.25;53.20;97953.22;5025630;28;19928;-73
2021/11/02 09:25:14;;;;;;;;;;;;;;;15.20;50.46;97953.91;5023779;28;19920;-73
2021/11/02 09:27:41;;;;;;;;;;;;;;;15.49;49.84;97950.22;5023656;28;19921;-72
2021/11/02 09:30:08;;;;;;;;;;;;;;;16.37;46.87;97947.59;5024404;28;20380;-70
2021/11/02 09:32:34;;;;;;;;;;;;;;;16.82;45.64;97952.66;5055916;28;20729;-70
2021/11/02 09:35:00;;;;;;;;;;;;;;;15.97;47.29;97962.25;5023115;28;20578;-72
2021/11/02 09:37:29;;;;;;;;;;;;;;;15.13;49.03;97956.31;5022861;28;20044;-71
2021/11/02 09:39:58;;;;;;;;;;;;;;;14.74;49.85;97953.91;5046718;28;19979;-72
2021/11/02 09:42:42;;;;;;;;;;;;;;;14.57;49.99;97959.94;5046126;28;20424;-72
2021/11/02 09:45:09;;;;;;;;;;;;;;;14.93;49.61;97954.78;5056682;22;19929;-72
2021/11/02 09:47:53;;;;;;;;;;;;;;;15.03;49.24;97952.91;5028798;28;20019;-74
2021/11/02 09:50:27;;;;;;;;;;;;;;;15.20;48.99;97948.59;5030819;28;20296;-73
2021/11/02 09:53:05;;;;;;;;;;;;;;;15.80;47.98;97951.53;5020836;28;19936;-74
2021/11/02 09:55:43;;;;;;;;;;;;;;;15.57;48.07;97953.78;5028703;28;19921;-71
2021/11/02 09:58:14;;;;;;;;;;;;;;;14.47;50.49;97956.47;5028643;28;19925;-73
2021/11/02 10:01:02;;;;;;;;;;;;;;;14.39;50.77;97958.03;5010086;28;19928;-72
2021/11/02 10:03:35;;;;;;;;;;;;;;;14.15;51.35;97955.03;5025108;28;19928;-71
2021/11/02 10:06:04;;;;;;;;;;;;;;;13.66;52.90;97955.13;5027373;28;19925;-72
2021/11/02 10:08:32;;;;;;;;;;;;;;;13.31;53.74;97953.00;5027418;28;19921;-72
2021/11/02 10:11:00;;;;;;;;;;;;;;;13.09;54.55;97948.75;5026886;28;19924;-72
2021/11/02 10:13:33;;;;;;;;;;;;;;;13.09;54.69;97946.13;5008441;28;20016;-73
2021/11/02 10:16:06;;;;;;;;;;;;;;;13.03;55.53;97955.44;5026085;28;20413;-72
2021/11/02 10:18:32;;;;;;;;;;;;;;;12.89;56.01;97955.81;5027304;28;20656;-72
2021/11/02 10:21:16;;;;;;;;;;;;;;;12.71;56.62;97960.09;5046262;28;20019;-71
2021/11/02 10:23:59;;;;;;;;;;;;;;;12.71;56.84;97960.91;5046325;28;20368;-71
2021/11/02 10:26:25;;;;;;;;;;;;;;;12.61;57.19;97960.06;5032338;28;19925;-73
2021/11/02 10:29:03;;;;;;;;;;;;;;;12.68;56.90;97955.91;5008149;28;19975;-73
2021/11/02 10:31:32;;;;;;;;;;;;;;;12.65;57.31;97957.00;5025766;28;19995;-73
2021/11/02 10:34:22;;;;;;;;;;;;;;;12.61;56.21;97949.47;5026286;28;19929;-72
2021/11/02 10:36:55;;;;;;;;;;;;;;;12.55;57.48;97956.16;5025682;28;19921;-71
2021/11/02 10:39:34;;;;;;;;;;;;;;;12.48;56.65;97956.78;5025219;28;19978;-72
2021/11/02 10:42:01;;;;;;;;;;;;;;;12.38;56.63;97956.72;5006585;28;19928;-71
2021/11/02 10:44:38;;;;;;;;;;;;;;;12.31;57.07;97956.44;5026047;28;19921;-72
2021/11/02 10:47:04;;;;;;;;;;;;;;;12.25;56.58;97960.44;5025151;28;19925;-73
2021/11/02 10:49:48;;;;;;;;;;;;;;;12.43;56.32;97951.91;5028012;28;19921;-72
2021/11/02 10:52:17;;;;;;;;;;;;;;;12.59;56.08;97940.84;5024865;28;20440;-72
2021/11/02 10:54:49;;;;;;;;;;;;;;;12.90;55.18;97944.28;5025726;28;19925;-73
2021/11/02 10:57:23;;;;;;;;;;;;;;;13.14;54.48;97943.88;5026076;28;19925;-72
2021/11/02 10:59:49;;;;;;;;;;;;;;;13.25;54.58;97948.25;5024270;28;20667;-72
2021/11/02 11:02:28;;;;;;;;;;;;;;;13.11;54.37;97938.88;5025057;28;19948;-72
2021/11/02 11:04:57;;;;;;;;;;;;;;;13.05;54.57;97945.56;5024720;28;19965;-71
2021/11/02 11:07:25;;;;;;;;;;;;;;;13.07;54.63;97945.44;5024810;28;20566;-72
2021/11/02 11:09:52;;;;;;;;;;;;;;;13.11;53.52;97942.34;5025649;28;19917;-72
2021/11/02 11:12:18;;;;;;;;;;;;;;;13.20;53.43;97939.88;5030043;28;20008;-70
2021/11/02 11:14:45;;;;;;;;;;;;;;;13.05;54.17;97936.81;5030763;28;20008;-70
2021/11/02 11:17:13;;;;;;;;;;;;;;;13.05;54.35;97937.63;5011576;28;19924;-73
2021/11/02 11:20:01;;;;;;;;;;;;;;;12.98;54.59;97943.59;5030974;28;20353;-71
2021/11/02 11:22:34;;;;;;;;;;;;;;;12.81;54.93;97940.63;5031115;28;19983;-72
2021/11/02 11:25:02;;;;;;;;;;;;;;;12.56;56.16;97947.22;5012788;28;19925;-71
2021/11/02 11:27:28;;;;;;;;;;;;;;;12.46;56.27;97947.19;5003497;28;19928;-70
2021/11/02 11:29:56;;;;;;;;;;;;;;;12.46;55.35;97946.38;5030452;28;19922;-72
2021/11/02 11:32:22;;;;;;;;;;;;;;;12.47;56.33;97942.75;5030177;28;19917;-72
2021/11/02 11:34:50;;;;;;;;;;;;;;;12.26;55.66;97950.72;5013346;28;19928;-70
2021/11/02 11:37:20;;;;;;;;;;;;;;;12.08;56.94;97941.72;5031002;28;19924;-70
2021/11/02 11:39:47;;;;;;;;;;;;;;;11.97;57.83;97943.47;5027619;28;20377;-70
2021/11/02 11:42:18;;;;;;;;;;;;;;;11.88;58.12;97933.66;5029473;28;19917;-72
2021/11/02 11:44:48;;;;;;;;;;;;;;;11.81;59.87;97935.13;5029572;28;19917;-70
2021/11/02 11:47:20;;;;;;;;;;;;;;;11.73;60.78;97937.56;5031154;28;19924;-72
2021/11/02 11:49:48;;;;;;;;;;;;;;;11.64;61.30;97933.91;5030758;28;19924;-72
2021/11/02 11:52:19;;;;;;;;;;;;;;;11.56;61.68;97931.06;5030458;28;20036;-71
2021/11/02 11:54:49;;;;;;;;;;;;;;;11.50;61.93;97935.03;5030325;28;19917;-70
2021/11/02 11:57:25;;;;;;;;;;;;;;;11.43;61.67;97930.41;5030331;28;19917;-71
2021/11/02 11:59:51;;;;;;;;;;;;;;;11.43;60.50;97931.25;5012556;28;19925;-71
2021/11/02 12:02:45;;;;;;;;;;;;;;;11.45;60.61;97931.13;5010161;28;19921;-72
2021/11/02 12:05:17;;;;;;;;;;;;;;;11.45;61.39;97929.31;5010041;28;19917;-71
2021/11/02 12:08:03;;;;;;;;;;;;;;;11.46;60.88;97932.78;5029668;28;19917;-70
2021/11/02 12:10:29;;;;;;;;;;;;;;;11.34;61.33;97934.63;5018317;28;20368;-72
2021/11/02 12:12:55;;;;;;;;;;;;;;;11.30;61.23;97923.50;5029901;28;19963;-73
2021/11/02 12:15:21;;;;;;;;;;;;;;;11.39;61.70;97932.44;5030066;28;19917;-72
2021/11/02 12:17:50;;;;;;;;;;;;;;;11.37;61.80;97929.09;5029257;28;20437;-73
2021/11/02 12:20:19;;;;;;;;;;;;;;;11.38;61.50;97928.97;5011094;28;19974;-72
2021/11/02 12:22:50;;;;;;;;;;;;;;;11.44;61.86;97921.50;5028552;28;20000;-72
2021/11/02 12:25:28;;;;;;;;;;;;;;;11.45;61.99;97920.56;5025372;28;19917;-72
2021/11/02 12:27:54;;;;;;;;;;;;;;;11.39;62.73;97924.53;5012061;28;20274;-72
2021/11/02 12:30:20;;;;;;;;;;;;;;;11.34;62.79;97922.25;5018294;28;19936;-72
2021/11/02 12:32:50;;;;;;;;;;;;;;;11.39;62.44;97925.38;5001024;28;19925;-72
2021/11/02 12:35:32;;;;;;;;;;;;;;;11.39;62.32;97925.38;5006386;28;20496;-73
2021/11/02 12:38:02;;;;;;;;;;;;;;;11.41;62.09;97924.41;4998428;28;19975;-72
2021/11/02 12:40:29;;;;;;;;;;;;;;;11.34;62.26;97918.78;5018289;28;20004;-71
2021/11/02 12:42:58;;;;;;;;;;;;;;;11.39;62.56;97920.13;5012339;28;19921;-72
2021/11/02 12:45:25;;;;;;;;;;;;;;;11.47;63.17;97913.34;5003758;28;20031;-73
2021/11/02 12:47:54;;;;;;;;;;;;;;;11.59;62.19;97917.59;5005301;28;20428;-72
2021/11/02 12:50:21;;;;;;;;;;;;;;;11.65;62.25;97918.91;5026304;28;19975;-73
2021/11/02 12:52:47;;;;;;;;;;;;;;;11.69;62.41;97913.25;5023168;28;20165;-72
2021/11/02 12:55:19;;;;;;;;;;;;;;;11.71;61.99;97908.66;4989203;28;20376;-73
2021/11/02 12:57:51;;;;;;;;;;;;;;;11.69;62.01;97912.38;5022216;28;20020;-72
2021/11/02 13:00:18;;;;;;;;;;;;;;;11.65;61.83;97906.53;5022984;28;19975;-73
2021/11/02 13:03:04;;;;;;;;;;;;;;;11.61;61.95;97911.22;5022680;28;20581;-71
2021/11/02 13:05:30;;;;;;;;;;;;;;;11.47;62.59;97908.06;5022648;28;19921;-74
2021/11/02 13:08:07;;;;;;;;;;;;;;;11.40;62.99;97910.38;5005555;28;21343;-72
2021/11/02 13:10:34;;;;;;;;;;;;;;;11.45;62.28;97910.00;5006507;28;20012;-72
2021/11/02 13:13:03;;;;;;;;;;;;;;;11.48;63.16;97909.75;5027330;28;19964;-73
2021/11/02 13:15:29;;;;;;;;;;;;;;;11.47;63.84;97906.28;5011712;28;19921;-73
2021/11/02 13:17:55;;;;;;;;;;;;;;;11.49;63.07;97903.50;5015952;28;19975;-73
2021/11/02 13:20:32;;;;;;;;;;;;;;;11.39;62.49;97904.28;5031437;28;20348;-71
2021/11/02 13:22:59;;;;;;;;;;;;;;;11.36;62.17;97908.97;5033091;28;19928;-74
2021/11/02 13:25:47;;;;;;;;;;;;;;;11.42;61.88;97903.19;5013653;28;20355;-71
2021/11/02 13:28:15;;;;;;;;;;;;;;;11.43;61.96;97904.84;5011467;28;19932;-71
2021/11/02 13:30:44;;;;;;;;;;;;;;;11.45;61.16;97913.47;5030922;28;20012;-73
2021/11/02 13:33:19;;;;;;;;;;;;;;;11.37;62.27;97919.41;5033251;28;19955;-72
2021/11/02 13:35:57;;;;;;;;;;;;;;;11.21;62.76;97923.41;5032312;28;20024;-72
2021/11/02 13:38:24;;;;;;;;;;;;;;;10.90;66.10;97926.75;5031137;28;19921;-73
2021/11/02 13:40:50;;;;;;;;;;;;;;;10.52;67.70;97937.69;5028764;28;19921;-72
2021/11/02 13:43:29;;;;;;;;;;;;;;;10.29;69.41;97950.88;5016437;28;19921;-71
2021/11/02 13:45:55;;;;;;;;;;;;;;;9.98;70.65;97947.06;5006033;28;19921;-72
2021/11/02 13:48:21;;;;;;;;;;;;;;;9.77;72.02;97948.69;5015703;28;19936;-71
2021/11/02 13:50:49;;;;;;;;;;;;;;;9.64;71.55;97941.72;5009921;28;19921;-71
2021/11/02 13:53:14;;;;;;;;;;;;;;;9.50;72.01;97952.47;4990434;28;19940;-73
2021/11/02 13:55:40;;;;;;;;;;;;;;;9.43;73.49;97952.06;5031903;28;20357;-74
2021/11/02 13:58:08;;;;;;;;;;;;;;;9.41;74.18;97937.38;5014639;28;19967;-74
2021/11/02 14:00:36;;;;;;;;;;;;;;;9.39;73.08;97949.78;5031538;28;19975;-73
2021/11/02 14:03:07;;;;;;;;;;;;;;;9.37;73.64;97954.31;5031657;28;19918;-73
2021/11/02 14:05:33;;;;;;;;;;;;;;;9.46;74.04;97943.13;5027029;28;19917;-72
2021/11/02 14:07:58;;;;;;;;;;;;;;;9.52;73.52;97952.34;5021265;28;19935;-73
2021/11/02 14:10:30;;;;;;;;;;;;;;;9.58;73.76;97958.00;5009863;28;19921;-72
2021/11/02 14:12:55;;;;;;;;;;;;;;;9.59;74.44;97956.19;5005265;28;19944;-74
2021/11/02 14:15:22;;;;;;;;;;;;;;;9.56;75.03;97959.88;5027403;28;20552;-73
2021/11/02 14:18:08;;;;;;;;;;;;;;;9.55;74.68;97957.34;5045941;28;19928;-73
2021/11/02 14:20:58;;;;;;;;;;;;;;;9.51;74.49;97953.31;5001437;28;19921;-75
2021/11/02 14:23:29;;;;;;;;;;;;;;;9.47;75.13;97963.19;5011552;28;20012;-72
2021/11/02 14:26:14;;;;;;;;;;;;;;;9.46;75.25;97961.53;5024345;28;19932;-72
2021/11/02 14:28:44;;;;;;;;;;;;;;;9.44;74.63;97973.94;5034959;28;19928;-72
2021/11/02 14:31:29;;;;;;;;;;;;;;;9.43;75.50;97974.91;5023950;28;20333;-73
2021/11/02 14:33:54;;;;;;;;;;;;;;;9.38;75.57;97977.88;5025470;28;20020;-72
2021/11/02 14:36:32;;;;;;;;;;;;;;;9.33;75.19;97977.38;5006310;28;20012;-72
2021/11/02 14:38:58;;;;;;;;;;;;;;;9.33;75.70;97982.63;4999665;28;19929;-73
2021/11/02 14:41:36;;;;;;;;;;;;;;;9.35;75.79;97980.75;5024622;28;19928;-72
2021/11/02 14:44:10;;;;;;;;;;;;;;;9.35;75.45;97980.75;5004182;28;20349;-73
2021/11/02 14:46:39;;;;;;;;;;;;;;;9.33;75.53;97982.63;5007634;28;19925;-72
2021/11/02 14:49:05;;;;;;;;;;;;;;;9.33;75.64;97981.78;5005621;28;19976;-73
2021/11/02 14:51:39;;;;;;;;;;;;;;;9.32;75.63;97988.00;5024353;28;19960;-72
2021/11/02 14:54:21;;;;;;;;;;;;;;;9.34;76.22;97986.94;5014356;28;20579;-74
2021/11/02 14:56:49;;;;;;;;;;;;;;;9.34;75.15;97988.72;5042648;28;19985;-73
2021/11/02 14:59:19;;;;;;;;;;;;;;;9.33;75.26;97987.03;5027332;28;19931;-71
2021/11/02 15:01:47;;;;;;;;;;;;;;;9.22;75.63;97991.28;5044623;28;19982;-72
2021/11/02 15:04:12;;;;;;;;;;;;;;;9.23;75.86;97984.25;5028198;28;19925;-72
2021/11/02 15:06:44;;;;;;;;;;;;;;;9.27;76.16;97987.50;5018637;28;19971;-73
2021/11/02 15:09:10;;;;;;;;;;;;;;;9.26;76.05;97988.47;5023900;28;19999;-73
2021/11/02 15:11:42;;;;;;;;;;;;;;;9.18;76.74;97992.47;5025445;28;19921;-72
2021/11/02 15:14:18;;;;;;;;;;;;;;;9.16;76.52;97991.75;5025605;28;19964;-72
2021/11/02 15:16:51;;;;;;;;;;;;;;;9.17;76.43;97993.41;5024689;28;19928;-73
2021/11/02 15:19:16;;;;;;;;;;;;;;;9.14;75.91;97998.91;4987791;28;19929;-72
2021/11/02 15:21:46;;;;;;;;;;;;;;;9.14;76.37;97998.06;5001478;28;19928;-74
2021/11/02 15:24:20;;;;;;;;;;;;;;;9.12;76.22;97998.16;5014594;28;19921;-73
2021/11/02 15:27:04;;;;;;;;;;;;;;;9.11;76.58;97998.28;4997154;28;19928;-73
2021/11/02 15:29:33;;;;;;;;;;;;;;;9.10;76.96;98007.13;5024203;28;21872;-74
2021/11/02 15:32:02;;;;;;;;;;;;;;;9.01;77.96;98004.19;5013600;28;19921;-73
2021/11/02 15:34:47;;;;;;;;;;;;;;;8.93;77.72;98003.06;5023559;28;19925;-73
2021/11/02 15:37:29;;;;;;;;;;;;;;;8.85;77.88;98005.41;5012977;28;19921;-72
2021/11/02 15:40:04;;;;;;;;;;;;;;;8.85;77.00;98005.41;5006383;28;19970;-75
2021/11/02 15:42:33;;;;;;;;;;;;;;;8.88;77.70;98003.38;5023031;28;19932;-73
2021/11/02 15:45:03;;;;;;;;;;;;;;;8.91;77.22;98007.56;5022870;28;19932;-74
2021/11/02 15:47:30;;;;;;;;;;;;;;;8.87;76.97;98000.88;5019217;28;19921;-74
2021/11/02 15:49:59;;;;;;;;;;;;;;;8.87;76.67;98001.72;5023774;28;19921;-73
2021/11/02 15:52:26;;;;;;;;;;;;;;;8.88;76.25;98010.44;4996254;28;20429;-72
2021/11/02 15:54:52;;;;;;;;;;;;;;;8.85;75.99;98014.13;5006630;28;19924;-73
2021/11/02 15:57:17;;;;;;;;;;;;;;;8.85;76.86;98018.53;5006466;28;19932;-73
2021/11/02 15:59:42;;;;;;;;;;;;;;;8.85;76.84;98013.28;5012591;28;19928;-74
2021/11/02 16:02:08;;;;;;;;;;;;;;;8.81;76.09;98021.38;4994769;28;19927;-72
2021/11/02 16:04:33;;;;;;;;;;;;;;;8.77;75.76;98021.72;5008737;28;19940;-72
2021/11/02 16:07:06;;;;;;;;;;;;;;;8.69;76.23;98018.75;5027217;28;19928;-73
2021/11/02 16:09:43;;;;;;;;;;;;;;;8.60;76.79;98020.25;5023232;28;19921;-73
2021/11/02 16:12:23;;;;;;;;;;;;;;;8.58;76.95;98019.50;5006930;28;19996;-71
2021/11/02 16:15:08;;;;;;;;;;;;;;;8.58;76.55;98011.63;5025263;28;19923;-71
2021/11/02 16:17:42;;;;;;;;;;;;;;;8.56;76.17;98014.34;5006424;28;19925;-70
2021/11/02 16:20:12;;;;;;;;;;;;;;;8.51;76.20;98010.38;5002483;28;20332;-71
2021/11/02 16:22:45;;;;;;;;;;;;;;;8.49;77.06;98007.00;5025060;28;19979;-72
2021/11/02 16:25:11;;;;;;;;;;;;;;;8.50;76.89;98000.84;5024075;28;19921;-71
2021/11/02 16:27:37;;;;;;;;;;;;;;;8.44;76.72;97998.63;5006768;28;19921;-72
2021/11/02 16:30:22;;;;;;;;;;;;;;;8.46;76.81;98002.81;5020314;28;19922;-72
2021/11/02 16:32:49;;;;;;;;;;;;;;;8.46;77.48;98009.84;5023544;28;19921;-72
2021/11/02 16:35:33;;;;;;;;;;;;;;;8.49;77.67;98007.88;5023324;28;19984;-72
2021/11/02 16:38:15;;;;;;;;;;;;;;;8.48;77.83;98014.06;5022853;28;19968;-73
2021/11/02 16:40:45;;;;;;;;;;;;;;;8.46;77.20;98013.31;5022686;28;19921;-72
2021/11/02 16:43:10;;;;;;;;;;;;;;;8.50;76.33;98019.22;5023091;28;19921;-73
2021/11/02 16:45:36;;;;;;;;;;;;;;;8.48;76.83;98021.09;5023876;28;19925;-72
2021/11/02 16:48:03;;;;;;;;;;;;;;;8.46;76.72;98025.63;5006072;28;19921;-73
2021/11/02 16:50:31;;;;;;;;;;;;;;;8.41;76.35;98025.09;5022332;28;19952;-72
2021/11/02 16:53:09;;;;;;;;;;;;;;;8.35;76.62;98029.78;5023091;28;19956;-71
2021/11/02 16:55:36;;;;;;;;;;;;;;;8.27;76.73;98026.88;5023394;28;19975;-70
2021/11/02 16:58:23;;;;;;;;;;;;;;;8.22;77.60;98030.72;5036155;28;20020;-72
2021/11/02 17:00:49;;;;;;;;;;;;;;;8.12;76.72;98041.00;5036307;28;19921;-73
2021/11/02 17:03:15;;;;;;;;;;;;;;;8.07;76.76;98037.84;5023521;28;19929;-74
2021/11/02 17:05:41;;;;;;;;;;;;;;;8.01;76.77;98043.53;5022441;28;19921;-71
2021/11/02 17:08:08;;;;;;;;;;;;;;;7.95;77.58;98048.25;5013247;28;20008;-72
2021/11/02 17:10:34;;;;;;;;;;;;;;;7.99;77.90;98048.84;5007469;28;19964;-72
2021/11/02 17:13:03;;;;;;;;;;;;;;;7.91;77.17;98051.16;5026602;28;19959;-72
2021/11/02 17:15:30;;;;;;;;;;;;;;;7.88;77.21;98054.00;5025942;28;19918;-75
2021/11/02 17:17:57;;;;;;;;;;;;;;;7.84;77.19;98058.59;5007239;28;19932;-72
2021/11/02 17:20:23;;;;;;;;;;;;;;;7.78;77.03;98061.63;5025222;28;19921;-73
2021/11/02 17:22:49;;;;;;;;;;;;;;;7.69;78.04;98060.44;5032070;28;19917;-72
2021/11/02 17:25:15;;;;;;;;;;;;;;;7.65;77.48;98066.81;5032144;28;20604;-74
2021/11/02 17:27:41;;;;;;;;;;;;;;;7.53;77.26;98063.22;5033588;28;19921;-74
2021/11/02 17:30:07;;;;;;;;;;;;;;;7.43;77.74;98070.00;5011862;28;20404;-74
2021/11/02 17:32:32;;;;;;;;;;;;;;;7.38;77.78;98074.66;5027683;28;19932;-73
2021/11/02 17:35:00;;;;;;;;;;;;;;;7.37;78.20;98083.47;5012384;28;19917;-74
2021/11/02 17:37:30;;;;;;;;;;;;;;;7.34;77.46;98078.44;5033558;28;19929;-74
2021/11/02 17:39:55;;;;;;;;;;;;;;;7.25;77.73;98079.03;5032121;28;19924;-73
2021/11/02 17:42:21;;;;;;;;;;;;;;;7.22;78.16;98092.31;5013006;28;20004;-74
2021/11/02 17:44:46;;;;;;;;;;;;;;;7.15;77.39;98091.03;5010116;28;19965;-75
2021/11/02 17:47:13;;;;;;;;;;;;;;;7.15;78.02;98096.25;5021744;28;19917;-74
2021/11/02 17:49:40;;;;;;;;;;;;;;;7.09;77.83;98085.22;5009648;28;20377;-74
2021/11/02 17:52:05;;;;;;;;;;;;;;;7.04;77.77;98089.91;5008531;28;19918;-73
2021/11/02 17:54:31;;;;;;;;;;;;;;;7.00;77.47;98098.91;4991097;28;20305;-74
2021/11/02 17:56:56;;;;;;;;;;;;;;;6.98;78.07;98100.75;5007813;28;19952;-73
2021/11/02 17:59:22;;;;;;;;;;;;;;;6.99;77.59;98098.97;5009834;28;19922;-74
2021/11/02 18:01:51;;;;;;;;;;;;;;;6.92;77.74;98103.78;5012320;28;19917;-73